createdAt,value
2016-06-07T00:00:42.007Z,1017.99
2016-06-07T00:03:54.938Z,1018.01
2016-06-07T00:07:08.072Z,1018.03
2016-06-07T00:10:25.065Z,1018.05
2016-06-07T00:13:30.042Z,1018.09
2016-06-07T00:16:43.393Z,1018.11
2016-06-07T00:19:56.373Z,1018.15
2016-06-07T00:23:10.115Z,1018.11
2016-06-07T00:26:26.889Z,1018.17
2016-06-07T00:29:31.711Z,1018.21
2016-06-07T00:32:45.046Z,1018.15
2016-06-07T00:35:58.713Z,1018.23
2016-06-07T00:39:12.158Z,1018.23
2016-06-07T00:42:29.651Z,1018.23
2016-06-07T00:45:34.440Z,1018.23
2016-06-07T00:48:47.761Z,1018.28
2016-06-07T00:52:00.865Z,1018.19
2016-06-07T00:55:13.998Z,1018.13
2016-06-07T00:58:31.194Z,1018.24
2016-06-07T01:01:36.280Z,1018.24
2016-06-07T01:04:49.710Z,1018.21
2016-06-07T01:08:02.815Z,1018.19
2016-06-07T01:11:16.198Z,1018.26
2016-06-07T01:14:29.143Z,1018.15
2016-06-07T01:17:42.089Z,1018.11
2016-06-07T01:20:55.396Z,1018.19
2016-06-07T01:24:08.545Z,1018.09
2016-06-07T01:27:25.381Z,1018.15
2016-06-07T01:30:30.108Z,1018.11
2016-06-07T01:33:42.960Z,1018.09
2016-06-07T01:36:56.189Z,1018.11
2016-06-07T01:40:09.385Z,1018.09
2016-06-07T01:43:26.034Z,1018.03
2016-06-07T01:46:30.776Z,1018.11
2016-06-07T01:49:43.772Z,1018.09
2016-06-07T01:52:56.512Z,1018.11
2016-06-07T01:56:09.474Z,1018.09
2016-06-07T01:59:26.149Z,1018.03
2016-06-07T02:02:30.882Z,1018.11
2016-06-07T02:05:43.660Z,1018.03
2016-06-07T02:08:56.845Z,1017.95
2016-06-07T02:12:07.697Z,1017.99
2016-06-07T02:15:24.674Z,1018.09
2016-06-07T02:18:29.152Z,1018.07
2016-06-07T02:21:42.299Z,1018.19
2016-06-07T02:24:55.152Z,1018.09
2016-06-07T02:28:08.350Z,1018.15
2016-06-07T02:31:25.498Z,1018.24
2016-06-07T02:34:30.148Z,1018.19
2016-06-07T02:37:43.280Z,1018.21
2016-06-07T02:40:56.523Z,1018.15
2016-06-07T02:44:09.502Z,1018.21
2016-06-07T02:47:26.260Z,1018.28
2016-06-07T02:50:30.800Z,1018.11
2016-06-07T02:53:43.965Z,1018.11
2016-06-07T02:56:56.848Z,1018.13
2016-06-07T03:00:09.030Z,1018.07
2016-06-07T03:03:25.631Z,1018.21
2016-06-07T03:06:30.202Z,1018.07
2016-06-07T03:09:43.195Z,1017.99
2016-06-07T03:12:56.186Z,1018.05
2016-06-07T03:16:09.088Z,1018.09
2016-06-07T03:19:25.753Z,1018.19
2016-06-07T03:22:30.308Z,1018.07
2016-06-07T03:25:43.504Z,1018.24
2016-06-07T03:28:56.355Z,1018.21
2016-06-07T03:32:09.648Z,1018.21
2016-06-07T03:35:26.327Z,1018.21
2016-06-07T03:38:30.772Z,1018.17
2016-06-07T03:41:43.578Z,1018.24
2016-06-07T03:44:56.195Z,1018.24
2016-06-07T03:48:09.252Z,1018.21
2016-06-07T03:51:26.246Z,1018.21
2016-06-07T03:54:30.769Z,1018.24
2016-06-07T03:57:41.807Z,1018.17
2016-06-07T04:00:54.551Z,1018.21
2016-06-07T04:04:07.592Z,1018.23
2016-06-07T04:07:23.976Z,1018.28
2016-06-07T04:10:32.359Z,1018.17
2016-06-07T04:13:36.898Z,1018.21
2016-06-07T04:16:49.687Z,1018.34
2016-06-07T04:20:02.229Z,1018.19
2016-06-07T04:23:12.472Z,1018.21
2016-06-07T04:26:29.135Z,1018.13
2016-06-07T04:29:33.504Z,1018.21
2016-06-07T04:32:45.309Z,1018.21
2016-06-07T04:35:58.378Z,1018.17
2016-06-07T04:39:12.374Z,1018.17
2016-06-07T04:42:29.367Z,1018.17
2016-06-07T04:45:34.202Z,1018.21
2016-06-07T04:48:47.539Z,1018.23
2016-06-07T04:52:01.141Z,1018.09
2016-06-07T04:55:14.636Z,1018.03
2016-06-07T04:58:32.035Z,1018.07
2016-06-07T05:01:37.027Z,1018.07
2016-06-07T05:04:50.176Z,1018.03
2016-06-07T05:08:03.812Z,1017.97
2016-06-07T05:11:17.523Z,1018.03
2016-06-07T05:14:31.062Z,1018.01
2016-06-07T05:17:44.413Z,1018.01
2016-06-07T05:20:57.688Z,1018.01
2016-06-07T05:24:10.777Z,1018.05
2016-06-07T05:27:27.332Z,1018.07
2016-06-07T05:30:32.370Z,1018.09
2016-06-07T05:33:45.520Z,1018.09
2016-06-07T05:36:59.778Z,1018.03
2016-06-07T05:40:12.648Z,1018.13
2016-06-07T05:43:29.656Z,1018.07
2016-06-07T05:46:34.726Z,1018.01
2016-06-07T05:49:48.094Z,1018.09
2016-06-07T05:53:01.555Z,1017.95
2016-06-07T05:56:14.785Z,1018.09
2016-06-07T05:59:32.465Z,1018.05
2016-06-07T06:02:37.660Z,1018.07
2016-06-07T06:05:50.840Z,1018.01
2016-06-07T06:09:04.270Z,1017.95
2016-06-07T06:12:17.234Z,1018.01
2016-06-07T06:15:30.929Z,1018.05
2016-06-07T06:18:44.734Z,1017.99
2016-06-07T06:21:58.492Z,1017.93
2016-06-07T06:25:12.175Z,1017.91
2016-06-07T06:28:29.730Z,1017.91
2016-06-07T06:31:35.129Z,1017.91
2016-06-07T06:34:49.246Z,1017.81
2016-06-07T06:38:03.442Z,1017.73
2016-06-07T06:41:17.748Z,1017.77
2016-06-07T06:44:32.320Z,1017.57
2016-06-07T06:47:46.703Z,1017.53
2016-06-07T06:51:01.320Z,1017.45
2016-06-07T06:54:15.691Z,1017.45
2016-06-07T06:57:33.683Z,1017.43
2016-06-07T07:00:39.612Z,1017.49
2016-06-07T07:03:54.215Z,1017.29
2016-06-07T07:07:09.038Z,1017.31
2016-06-07T07:10:27.077Z,1017.35
2016-06-07T07:13:32.429Z,1017.29
2016-06-07T07:16:48.328Z,1017.23
2016-06-07T07:20:03.164Z,1017.33
2016-06-07T07:23:18.236Z,1017.27
2016-06-07T07:26:33.339Z,1017.29
2016-06-07T07:29:48.722Z,1017.31
2016-06-07T07:33:01.746Z,1017.29
2016-06-07T07:36:17.194Z,1017.15
2016-06-07T07:39:32.576Z,1017.25
2016-06-07T07:42:46.976Z,1017.15
2016-06-07T07:46:03.890Z,1017.13
2016-06-07T07:49:19.791Z,1017.13
2016-06-07T07:52:36.175Z,1017.09
2016-06-07T07:55:51.589Z,1017.05
2016-06-07T07:59:07.425Z,1017.15
2016-06-07T08:02:20.405Z,1017.13
2016-06-07T08:05:36.146Z,1017.17
2016-06-07T08:08:51.718Z,1017.19
2016-06-07T08:12:07.226Z,1017.07
2016-06-07T08:15:26.767Z,1017.19
2016-06-07T08:18:33.698Z,1017.13
2016-06-07T08:21:49.158Z,1017.17
2016-06-07T08:25:04.542Z,1017.21
2016-06-07T08:28:19.990Z,1017.15
2016-06-07T08:31:35.405Z,1017.17
2016-06-07T08:34:50.818Z,1017.21
2016-06-07T08:38:06.124Z,1017.19
2016-06-07T08:41:25.682Z,1017.17
2016-06-07T08:44:32.517Z,1017.11
2016-06-07T08:47:48.026Z,1017.19
2016-06-07T08:51:03.189Z,1017.17
2016-06-07T08:54:18.685Z,1017.11
2016-06-07T08:57:34.069Z,1017.19
2016-06-07T09:00:49.373Z,1017.13
2016-06-07T09:04:04.616Z,1017.13
2016-06-07T09:07:20.001Z,1017.05
2016-06-07T09:10:35.384Z,1017.19
2016-06-07T09:13:50.737Z,1017.09
2016-06-07T09:17:06.260Z,1017.07
2016-06-07T09:20:25.598Z,1017.13
2016-06-07T09:23:32.388Z,1017.17
2016-06-07T09:26:46.990Z,1017.17
2016-06-07T09:30:02.216Z,1017.21
2016-06-07T09:33:17.384Z,1017.19
2016-06-07T09:36:32.485Z,1017.19
2016-06-07T09:39:47.524Z,1017.15
2016-06-07T09:43:02.674Z,1017.23
2016-06-07T09:46:17.982Z,1017.15
2016-06-07T09:49:33.052Z,1017.21
2016-06-07T09:52:48.576Z,1017.23
2016-06-07T09:56:02.912Z,1017.31
2016-06-07T09:59:17.875Z,1017.23
2016-06-07T10:02:32.649Z,1017.27
2016-06-07T10:05:47.705Z,1017.25
2016-06-07T10:09:02.697Z,1017.21
2016-06-07T10:12:17.613Z,1017.25
2016-06-07T10:15:34.591Z,1017.19
2016-06-07T10:18:40.333Z,1017.23
2016-06-07T10:21:54.795Z,1017.21
2016-06-07T10:25:09.146Z,1017.25
2016-06-07T10:28:27.421Z,1017.21
2016-06-07T10:31:32.928Z,1017.23
2016-06-07T10:34:47.081Z,1017.21
2016-06-07T10:38:01.713Z,1017.27
2016-06-07T10:41:14.659Z,1017.29
2016-06-07T10:44:31.995Z,1017.31
2016-06-07T10:47:36.753Z,1017.29
2016-06-07T10:50:49.952Z,1017.21
2016-06-07T10:54:03.584Z,1017.27
2016-06-07T10:57:17.463Z,1017.21
2016-06-07T11:00:32.274Z,1017.17
2016-06-07T11:03:37.158Z,1017.11
2016-06-07T11:06:50.695Z,1017.15
2016-06-07T11:10:04.349Z,1017.19
2016-06-07T11:13:18.048Z,1017.19
2016-06-07T11:16:31.713Z,1017.15
2016-06-07T11:19:45.628Z,1017.15
2016-06-07T11:22:59.561Z,1017.11
2016-06-07T11:26:13.131Z,1017.17
2016-06-07T11:29:30.202Z,1017.15
2016-06-07T11:32:35.242Z,1017.19
2016-06-07T11:35:48.924Z,1017.09
2016-06-07T11:38:59.510Z,1017.01
2016-06-07T11:42:13.253Z,1017.09
2016-06-07T11:45:30.745Z,1017.05
2016-06-07T11:48:35.644Z,1016.93
2016-06-07T11:51:48.826Z,1017.03
2016-06-07T11:55:02.334Z,1016.99
2016-06-07T11:58:15.717Z,1017.07
2016-06-07T12:01:33.179Z,1016.97
2016-06-07T12:04:38.030Z,1016.91
2016-06-07T12:07:51.713Z,1016.93
2016-06-07T12:11:05.362Z,1016.91
2016-06-07T12:14:19.042Z,1016.89
2016-06-07T12:17:32.628Z,1016.82
2016-06-07T12:20:43.714Z,1016.8
2016-06-07T12:23:57.194Z,1016.74
2016-06-07T12:27:10.780Z,1016.72
2016-06-07T12:30:28.085Z,1016.76
2016-06-07T12:33:33.061Z,1016.82
2016-06-07T12:36:46.835Z,1016.7
2016-06-07T12:40:00.159Z,1016.68
2016-06-07T12:43:13.854Z,1016.7
2016-06-07T12:46:31.284Z,1016.66
2016-06-07T12:49:36.168Z,1016.66
2016-06-07T12:52:49.772Z,1016.66
2016-06-07T12:56:03.358Z,1016.62
2016-06-07T12:59:16.725Z,1016.56
2016-06-07T13:02:34.436Z,1016.5
2016-06-07T13:05:39.242Z,1016.54
2016-06-07T13:08:53.549Z,1016.52
2016-06-07T13:12:05.729Z,1016.5
2016-06-07T13:15:19.237Z,1016.62
2016-06-07T13:18:32.651Z,1016.54
2016-06-07T13:21:46.206Z,1016.44
2016-06-07T13:24:59.701Z,1016.4
2016-06-07T13:28:11.226Z,1016.34
2016-06-07T13:31:28.858Z,1016.36
2016-06-07T13:34:33.663Z,1016.28
2016-06-07T13:37:47.094Z,1016.28
2016-06-07T13:41:00.744Z,1016.28
2016-06-07T13:44:14.018Z,1016.3
2016-06-07T13:47:31.714Z,1016.24
2016-06-07T13:50:36.644Z,1016.28
2016-06-07T13:53:50.449Z,1016.22
2016-06-07T13:57:03.944Z,1016.12
2016-06-07T14:00:17.483Z,1016.16
2016-06-07T14:03:35.053Z,1016.06
2016-06-07T14:06:40.046Z,1016.12
2016-06-07T14:09:53.870Z,1015.98
2016-06-07T14:13:05.393Z,1015.92
2016-06-07T14:16:19.293Z,1015.94
2016-06-07T14:19:33.253Z,1015.86
2016-06-07T14:22:46.792Z,1015.96
2016-06-07T14:26:00.319Z,1015.8
2016-06-07T14:29:13.639Z,1015.78
2016-06-07T14:32:31.006Z,1015.78
2016-06-07T14:35:36.030Z,1015.7
2016-06-07T14:38:50.366Z,1015.6
2016-06-07T14:42:03.190Z,1015.6
2016-06-07T14:45:16.979Z,1015.52
2016-06-07T14:48:34.706Z,1015.56
2016-06-07T14:51:39.636Z,1015.54
2016-06-07T14:54:53.410Z,1015.44
2016-06-07T14:58:07.233Z,1015.46
2016-06-07T15:01:21.039Z,1015.4
2016-06-07T15:04:34.843Z,1015.26
2016-06-07T15:07:48.414Z,1015.22
2016-06-07T15:11:02.159Z,1015.22
2016-06-07T15:14:14.480Z,1015.2
2016-06-07T15:17:31.971Z,1015.2
2016-06-07T15:20:37.104Z,1015.02
2016-06-07T15:23:50.910Z,1014.94
2016-06-07T15:27:04.686Z,1014.94
2016-06-07T15:30:18.381Z,1014.94
2016-06-07T15:33:36.155Z,1014.91
2016-06-07T15:36:41.164Z,1014.83
2016-06-07T15:39:54.953Z,1014.85
2016-06-07T15:43:06.932Z,1014.85
2016-06-07T15:46:19.205Z,1014.83
2016-06-07T15:49:35.386Z,1014.73
2016-06-07T15:52:40.363Z,1014.73
2016-06-07T15:55:53.792Z,1014.67
2016-06-07T15:59:07.647Z,1014.59
2016-06-07T16:02:21.249Z,1014.65
2016-06-07T16:05:36.773Z,1014.57
2016-06-07T16:08:41.812Z,1014.59
2016-06-07T16:11:55.647Z,1014.53
2016-06-07T16:15:09.487Z,1014.45
2016-06-07T16:18:27.386Z,1014.51
2016-06-07T16:21:36.441Z,1014.49
2016-06-07T16:24:41.354Z,1014.49
2016-06-07T16:27:55.097Z,1014.43
2016-06-07T16:31:05.670Z,1014.39
2016-06-07T16:34:19.131Z,1014.41
2016-06-07T16:37:36.797Z,1014.37
2016-06-07T16:40:41.898Z,1014.35
2016-06-07T16:43:55.516Z,1014.29
2016-06-07T16:47:09.324Z,1014.33
2016-06-07T16:50:23.112Z,1014.41
2016-06-07T16:53:36.793Z,1014.33
2016-06-07T16:56:50.254Z,1014.39
2016-06-07T17:00:03.937Z,1014.29
2016-06-07T17:03:15.742Z,1014.35
2016-06-07T17:06:33.421Z,1014.35
2016-06-07T17:09:38.288Z,1014.33
2016-06-07T17:12:51.937Z,1014.27
2016-06-07T17:16:05.557Z,1014.29
2016-06-07T17:19:19.097Z,1014.27
2016-06-07T17:22:36.761Z,1014.27
2016-06-07T17:25:41.660Z,1014.31
2016-06-07T17:28:54.824Z,1014.27
2016-06-07T17:32:07.990Z,1014.27
2016-06-07T17:35:21.687Z,1014.29
2016-06-07T17:38:35.054Z,1014.31
2016-06-07T17:41:48.718Z,1014.37
2016-06-07T17:45:02.305Z,1014.27
2016-06-07T17:48:15.877Z,1014.35
2016-06-07T17:51:33.354Z,1014.37
2016-06-07T17:54:38.254Z,1014.37
2016-06-07T17:57:51.652Z,1014.39
2016-06-07T18:01:05.162Z,1014.43
2016-06-07T18:04:18.609Z,1014.35
2016-06-07T18:07:36.023Z,1014.39
2016-06-07T18:10:40.859Z,1014.35
2016-06-07T18:13:54.195Z,1014.31
2016-06-07T18:17:05.097Z,1014.27
2016-06-07T18:20:18.135Z,1014.31
2016-06-07T18:23:35.175Z,1014.41
2016-06-07T18:26:39.933Z,1014.43
2016-06-07T18:29:52.301Z,1014.43
2016-06-07T18:33:05.574Z,1014.37
2016-06-07T18:36:18.945Z,1014.31
2016-06-07T18:39:36.125Z,1014.35
2016-06-07T18:42:40.679Z,1014.45
2016-06-07T18:45:54.000Z,1014.51
2016-06-07T18:49:07.151Z,1014.43
2016-06-07T18:52:20.206Z,1014.33
2016-06-07T18:55:38.761Z,1014.43
2016-06-07T18:58:42.316Z,1014.33
2016-06-07T19:01:55.934Z,1014.41
2016-06-07T19:05:09.132Z,1014.35
2016-06-07T19:08:22.265Z,1014.39
2016-06-07T19:11:39.445Z,1014.35
2016-06-07T19:14:44.062Z,1014.43
2016-06-07T19:17:57.336Z,1014.37
2016-06-07T19:21:10.550Z,1014.39
2016-06-07T19:24:20.902Z,1014.39
2016-06-07T19:27:37.690Z,1014.41
2016-06-07T19:30:47.324Z,1014.53
2016-06-07T19:33:50.395Z,1014.53
2016-06-07T19:37:03.168Z,1014.55
2016-06-07T19:40:17.039Z,1014.53
2016-06-07T19:43:29.531Z,1014.63
2016-06-07T19:46:46.101Z,1014.69
2016-06-07T19:49:50.531Z,1014.63
2016-06-07T19:53:01.102Z,1014.73
2016-06-07T19:56:14.769Z,1014.77
2016-06-07T19:59:27.135Z,1014.75
2016-06-07T20:02:44.106Z,1014.81
2016-06-07T20:05:48.788Z,1014.73
2016-06-07T20:09:02.183Z,1014.73
2016-06-07T20:12:15.455Z,1014.65
2016-06-07T20:15:28.873Z,1014.73
2016-06-07T20:18:46.305Z,1014.67
2016-06-07T20:21:50.625Z,1014.77
2016-06-07T20:25:30.261Z,1014.77
2016-06-07T20:28:45.160Z,1014.73
2016-06-07T20:31:49.558Z,1014.65
2016-06-07T20:35:02.598Z,1014.83
2016-06-07T20:38:13.282Z,1014.77
2016-06-07T20:41:26.258Z,1014.81
2016-06-07T20:44:43.093Z,1014.71
2016-06-07T20:47:47.493Z,1014.69
2016-06-07T20:51:00.485Z,1014.75
2016-06-07T20:54:12.964Z,1014.71
2016-06-07T20:57:26.800Z,1014.71
2016-06-07T21:00:32.918Z,1014.67
2016-06-07T21:03:50.301Z,1014.71
2016-06-07T21:06:55.543Z,1014.71
2016-06-07T21:10:09.146Z,1014.69
2016-06-07T21:13:22.578Z,1014.65
2016-06-07T21:16:36.493Z,1014.83
2016-06-07T21:19:54.517Z,1014.79
2016-06-07T21:23:00.149Z,1014.79
2016-06-07T21:26:14.472Z,1014.77
2016-06-07T21:29:27.839Z,1014.79
2016-06-07T21:32:40.707Z,1014.71
2016-06-07T21:35:54.856Z,1014.71
2016-06-07T21:39:08.989Z,1014.67
2016-06-07T21:42:23.468Z,1014.67
2016-06-07T21:45:37.851Z,1014.69
2016-06-07T21:48:56.344Z,1014.77
2016-06-07T21:52:02.259Z,1014.67
2016-06-07T21:55:13.753Z,1014.63
2016-06-07T21:58:28.074Z,1014.61
2016-06-07T22:01:42.239Z,1014.63
2016-06-07T22:04:56.544Z,1014.57
2016-06-07T22:08:10.707Z,1014.51
2016-06-07T22:11:24.781Z,1014.39
2016-06-07T22:17:51.063Z,1014.53
2016-06-07T22:21:05.181Z,1014.45
2016-06-07T22:24:20.362Z,1014.39
2016-06-07T22:27:32.418Z,1014.37
2016-06-07T22:30:47.550Z,1014.35
2016-06-07T22:34:05.746Z,1014.37
2016-06-07T22:37:11.302Z,1014.37
2016-06-07T22:40:25.562Z,1014.27
2016-06-07T22:43:39.430Z,1014.29
2016-06-07T22:46:57.641Z,1014.15
2016-06-07T22:50:03.304Z,1014.13
2016-06-07T22:53:16.082Z,1014.03
2016-06-07T22:56:30.292Z,1014.11
2016-06-07T22:59:44.364Z,1014.11
2016-06-07T23:03:01.903Z,1014.09
2016-06-07T23:06:07.894Z,1014.03
2016-06-07T23:09:20.156Z,1013.97
2016-06-07T23:12:34.538Z,1014.01
2016-06-07T23:15:48.874Z,1013.93
2016-06-07T23:19:07.321Z,1014.07
2016-06-07T23:22:12.828Z,1014.01
2016-06-07T23:25:27.136Z,1014.01
2016-06-07T23:28:41.425Z,1013.93
2016-06-07T23:31:53.230Z,1013.97
2016-06-07T23:35:04.723Z,1013.87
2016-06-07T23:38:18.780Z,1013.81
2016-06-07T23:41:33.070Z,1013.79
2016-06-07T23:44:46.110Z,1013.75
2016-06-07T23:48:04.117Z,1013.81
2016-06-07T23:51:09.751Z,1013.79
2016-06-07T23:54:21.198Z,1013.85
2016-06-07T23:57:35.362Z,1013.67
